Time;durP1;ratioP1;P1;durP2;ratioP2;P2;SDS_P1;SDS_P2;PMS_P1;PMS_P2;Temp;Humidity;BMP_temperature;BMP_pressure;BME280_temperature;BME280_humidity;BME280_pressure;Samples;Min_cycle;Max_cycle;Signal;HPM_P1;HPM_P2
2021/11/23 00:01:43;;;;;;;2.72;1.80;;;10.60;99.90;;;;;;6123785;23;20037;-84
2021/11/23 00:04:09;;;;;;;2.78;1.85;;;10.60;99.90;;;;;;6124204;23;20415;-83
2021/11/23 00:06:36;;;;;;;2.05;1.58;;;10.60;99.90;;;;;;6096550;23;20434;-83
2021/11/23 00:09:02;;;;;;;1.63;1.52;;;10.60;99.90;;;;;;6098061;23;20006;-83
2021/11/23 00:11:28;;;;;;;2.55;1.23;;;10.70;99.90;;;;;;6094532;23;20109;-83
2021/11/23 00:13:54;;;;;;;1.83;1.67;;;10.70;99.90;;;;;;6123113;23;20020;-83
2021/11/23 00:16:19;;;;;;;2.15;1.70;;;10.60;99.90;;;;;;6096930;23;20025;-83
2021/11/23 00:18:46;;;;;;;5.93;1.50;;;10.60;99.90;;;;;;6098511;23;20089;-82
2021/11/23 00:21:13;;;;;;;2.20;1.38;;;10.60;99.90;;;;;;6097181;23;20068;-82
2021/11/23 00:23:38;;;;;;;1.48;1.38;;;10.60;99.90;;;;;;6123958;23;20013;-82
2021/11/23 00:26:05;;;;;;;1.30;1.20;;;10.60;99.90;;;;;;6125013;23;20329;-81
2021/11/23 00:28:31;;;;;;;2.15;1.40;;;10.60;99.90;;;;;;6125297;23;20433;-80
2021/11/23 00:30:58;;;;;;;1.40;1.30;;;10.50;99.90;;;;;;6098430;23;20092;-81
2021/11/23 00:33:24;;;;;;;1.85;1.40;;;10.60;99.90;;;;;;6098105;23;20097;-83
2021/11/23 00:35:50;;;;;;;3.22;1.42;;;10.60;99.90;;;;;;6098305;23;20029;-82
2021/11/23 00:38:17;;;;;;;2.50;1.60;;;10.60;99.90;;;;;;6124122;23;20148;-82
2021/11/23 00:40:44;;;;;;;1.58;1.30;;;10.60;99.90;;;;;;6124133;23;20136;-82
2021/11/23 00:43:10;;;;;;;1.40;1.30;;;10.50;99.90;;;;;;6123623;23;20064;-82
2021/11/23 00:45:37;;;;;;;1.40;1.30;;;10.50;99.90;;;;;;6098338;23;20006;-81
2021/11/23 00:48:04;;;;;;;1.80;1.70;;;10.50;99.90;;;;;;6123084;23;20006;-81
2021/11/23 00:50:31;;;;;;;3.47;2.35;;;10.50;99.90;;;;;;6123804;23;20016;-81
2021/11/23 00:52:57;;;;;;;2.10;1.90;;;10.50;99.90;;;;;;6099498;23;20018;-81
2021/11/23 00:55:22;;;;;;;2.28;2.08;;;10.50;99.90;;;;;;6125941;23;20437;-83
2021/11/23 00:57:48;;;;;;;2.30;1.65;;;10.40;99.90;;;;;;6099717;23;20013;-83
2021/11/23 01:00:15;;;;;;;3.33;1.80;;;10.30;99.90;;;;;;6099823;23;20006;-82
2021/11/23 01:02:41;;;;;;;2.30;2.10;;;10.30;99.90;;;;;;6124817;23;20002;-82
2021/11/23 01:05:07;;;;;;;2.97;2.10;;;10.30;99.90;;;;;;6099787;23;20502;-82
2021/11/23 01:07:33;;;;;;;3.13;2.38;;;10.20;99.90;;;;;;6124932;23;20081;-80
2021/11/23 01:09:59;;;;;;;2.90;2.25;;;10.20;99.90;;;;;;6099920;23;20037;-84
2021/11/23 01:12:25;;;;;;;3.10;2.45;;;10.20;99.90;;;;;;6098635;23;20514;-81
2021/11/23 01:14:51;;;;;;;5.45;2.85;;;10.10;99.90;;;;;;6099892;23;20061;-83
2021/11/23 01:17:18;;;;;;;3.58;3.08;;;10.20;99.90;;;;;;6099284;23;20092;-83
2021/11/23 01:19:44;;;;;;;3.53;2.63;;;10.10;99.90;;;;;;6125521;23;20008;-82
2021/11/23 01:22:10;;;;;;;3.10;2.80;;;10.00;99.90;;;;;;6125000;23;20088;-82
2021/11/23 01:24:37;;;;;;;3.20;2.55;;;10.10;99.90;;;;;;6125507;23;20373;-84
2021/11/23 01:27:03;;;;;;;3.95;2.47;;;10.00;99.90;;;;;;6124675;23;20010;-82
2021/11/23 01:29:29;;;;;;;2.60;2.40;;;10.10;99.90;;;;;;6125374;23;20014;-82
2021/11/23 01:31:55;;;;;;;3.47;2.50;;;10.10;99.90;;;;;;6124447;23;20057;-82
2021/11/23 01:34:21;;;;;;;2.88;2.20;;;10.10;99.90;;;;;;6099755;23;20006;-81
2021/11/23 01:36:49;;;;;;;2.47;1.80;;;10.10;99.90;;;;;;6098619;23;20006;-81
2021/11/23 01:39:16;;;;;;;5.00;2.60;;;10.10;99.90;;;;;;6099287;23;20092;-82
2021/11/23 01:41:42;;;;;;;2.55;1.85;;;10.20;99.90;;;;;;6124591;23;20006;-80
2021/11/23 01:44:08;;;;;;;3.15;2.50;;;10.20;99.90;;;;;;6124630;23;20012;-81
2021/11/23 01:46:34;;;;;;;4.18;1.80;;;10.20;99.90;;;;;;6098600;23;20014;-82
2021/11/23 01:48:59;;;;;;;2.70;2.00;;;10.20;99.90;;;;;;6099259;23;20064;-81
2021/11/23 01:51:26;;;;;;;3.15;2.03;;;10.20;99.90;;;;;;6098384;23;20510;-81
2021/11/23 01:53:52;;;;;;;3.13;2.03;;;10.20;99.90;;;;;;6124875;23;20402;-81
2021/11/23 01:56:18;;;;;;;2.22;2.03;;;10.20;99.90;;;;;;6124681;23;20009;-81
2021/11/23 01:58:43;;;;;;;2.78;2.22;;;10.20;99.90;;;;;;6124754;23;20357;-81
2021/11/23 02:01:09;;;;;;;2.13;1.90;;;10.30;99.90;;;;;;6098289;23;20081;-81
2021/11/23 02:03:36;;;;;;;2.53;1.98;;;10.20;99.90;;;;;;6124467;23;20012;-82
2021/11/23 02:06:03;;;;;;;3.53;1.80;;;10.20;99.90;;;;;;6098640;23;20448;-82
2021/11/23 02:08:29;;;;;;;2.60;1.98;;;10.20;99.90;;;;;;6124997;23;20006;-82
2021/11/23 02:10:55;;;;;;;2.58;1.92;;;10.20;99.90;;;;;;6125187;23;20137;-82
2021/11/23 02:13:21;;;;;;;2.28;1.90;;;10.20;99.90;;;;;;6124983;23;20014;-81
2021/11/23 02:15:48;;;;;;;4.57;2.58;;;10.10;99.90;;;;;;6099563;23;20081;-82
2021/11/23 02:18:17;;;;;;;3.40;2.22;;;10.10;99.90;;;;;;6098302;23;20149;-80
2021/11/23 02:20:43;;;;;;;4.22;2.47;;;10.20;99.90;;;;;;6124596;23;20054;-81
2021/11/23 02:23:09;;;;;;;3.38;2.60;;;10.10;99.90;;;;;;6098198;23;19998;-80
2021/11/23 02:25:35;;;;;;;5.10;2.53;;;10.10;99.90;;;;;;6098691;23;20010;-81
2021/11/23 02:28:00;;;;;;;4.53;2.65;;;10.10;99.90;;;;;;6124076;23;20010;-81
2021/11/23 02:30:26;;;;;;;15.45;2.95;;;10.10;99.90;;;;;;6124538;23;20334;-81
2021/11/23 02:32:52;;;;;;;5.88;2.63;;;10.20;99.90;;;;;;6124785;23;20137;-82
2021/11/23 02:35:20;;;;;;;3.00;2.63;;;10.20;99.90;;;;;;6098858;23;20049;-82
2021/11/23 02:37:49;;;;;;;4.38;2.70;;;10.20;99.90;;;;;;6124570;23;20049;-81
2021/11/23 02:40:16;;;;;;;4.35;2.75;;;10.20;99.90;;;;;;6124497;23;20329;-81
2021/11/23 02:42:43;;;;;;;4.65;2.92;;;10.20;99.90;;;;;;6124211;23;20002;-81
2021/11/23 02:45:09;;;;;;;4.00;2.60;;;10.20;99.90;;;;;;6098527;23;20034;-81
2021/11/23 02:47:37;;;;;;;2.85;2.53;;;10.20;99.90;;;;;;6097918;23;20010;-80
2021/11/23 02:50:05;;;;;;;3.53;2.10;;;10.20;99.90;;;;;;6124549;23;20513;-80
2021/11/23 02:52:30;;;;;;;3.50;2.30;;;10.20;99.90;;;;;;6123880;23;20057;-80
2021/11/23 02:55:01;;;;;;;4.55;2.17;;;10.20;99.90;;;;;;6124455;23;20010;-81
2021/11/23 02:57:31;;;;;;;3.38;2.05;;;10.30;99.90;;;;;;6124027;23;20004;-82
2021/11/23 02:59:58;;;;;;;2.35;2.08;;;10.30;99.90;;;;;;6098603;23;20006;-82
2021/11/23 03:02:24;;;;;;;3.92;2.22;;;10.30;99.90;;;;;;6123979;23;20002;-82
2021/11/23 03:04:52;;;;;;;6.28;2.55;;;10.30;99.90;;;;;;6124309;23;20395;-82
2021/11/23 03:07:19;;;;;;;5.78;2.35;;;10.40;99.90;;;;;;6123806;23;20461;-82
2021/11/23 03:09:44;;;;;;;2.45;2.22;;;10.40;99.90;;;;;;6124073;23;20002;-82
2021/11/23 03:12:24;;;;;;;4.00;2.17;;;10.40;99.90;;;;;;6097798;23;20322;-82
2021/11/23 03:14:50;;;;;;;3.55;2.38;;;10.40;99.90;;;;;;6124434;23;20437;-80
2021/11/23 03:17:17;;;;;;;6.15;2.75;;;10.40;99.90;;;;;;6097934;23;20017;-82
2021/11/23 03:19:45;;;;;;;3.47;2.38;;;10.40;99.90;;;;;;6098444;23;20061;-81
2021/11/23 03:22:11;;;;;;;4.22;1.92;;;10.50;99.90;;;;;;6123592;23;20009;-82
2021/11/23 03:24:38;;;;;;;2.78;1.85;;;10.40;99.90;;;;;;6098281;23;20006;-80
2021/11/23 03:27:05;;;;;;;2.60;2.40;;;10.50;99.90;;;;;;6097814;23;20006;-80
2021/11/23 03:29:31;;;;;;;5.15;2.10;;;10.50;99.90;;;;;;6119767;23;20525;-82
2021/11/23 03:31:57;;;;;;;4.57;2.70;;;10.50;99.90;;;;;;6122262;23;20093;-81
2021/11/23 03:34:23;;;;;;;4.35;2.60;;;10.50;99.90;;;;;;6124538;23;20038;-81
2021/11/23 03:36:49;;;;;;;2.78;2.00;;;10.50;99.90;;;;;;6122103;23;20065;-82
2021/11/23 03:39:16;;;;;;;3.15;2.08;;;10.50;99.90;;;;;;6124127;23;20008;-82
2021/11/23 03:41:42;;;;;;;4.47;2.58;;;10.50;99.90;;;;;;6122536;23;20002;-82
2021/11/23 03:44:08;;;;;;;3.92;2.63;;;10.50;99.90;;;;;;6124365;23;20162;-81
2021/11/23 03:46:35;;;;;;;3.55;2.50;;;10.50;99.90;;;;;;6123912;23;20096;-82
2021/11/23 03:49:01;;;;;;;3.95;2.42;;;10.50;99.90;;;;;;6122889;23;20349;-80
2021/11/23 03:51:27;;;;;;;3.13;2.50;;;10.40;99.90;;;;;;6123263;23;20001;-83
2021/11/23 03:53:53;;;;;;;2.60;2.35;;;10.50;99.90;;;;;;6122183;23;20461;-82
2021/11/23 03:56:19;;;;;;;3.05;2.33;;;10.50;99.90;;;;;;6122263;23;20010;-82
2021/11/23 03:58:44;;;;;;;3.97;2.60;;;10.50;99.90;;;;;;6122183;23;20086;-82
2021/11/23 04:01:11;;;;;;;2.40;2.20;;;10.50;99.90;;;;;;6122301;23;20379;-81
2021/11/23 04:03:37;;;;;;;16.52;2.97;;;10.50;99.90;;;;;;6122428;23;20033;-81
2021/11/23 04:06:04;;;;;;;4.00;2.20;;;10.50;99.90;;;;;;6121818;23;20490;-81
2021/11/23 04:08:30;;;;;;;6.53;2.35;;;10.40;99.90;;;;;;6122025;23;20084;-81
2021/11/23 04:10:56;;;;;;;2.45;2.08;;;10.40;99.90;;;;;;6123916;23;19998;-80
2021/11/23 04:13:22;;;;;;;2.78;2.30;;;10.40;99.90;;;;;;6123937;23;20017;-80
2021/11/23 04:15:49;;;;;;;3.72;2.40;;;10.40;99.90;;;;;;6122596;23;20006;-82
2021/11/23 04:18:15;;;;;;;4.32;2.17;;;10.30;99.90;;;;;;6121849;23;20426;-81
2021/11/23 04:20:41;;;;;;;3.13;2.10;;;10.30;99.90;;;;;;6123542;23;20010;-81
2021/11/23 04:23:07;;;;;;;3.40;2.90;;;10.30;99.90;;;;;;6123268;23;20009;-83
2021/11/23 04:25:33;;;;;;;4.90;2.90;;;10.20;99.90;;;;;;6123688;23;20002;-82
2021/11/23 04:27:59;;;;;;;4.70;2.90;;;10.20;99.90;;;;;;6123820;23;20038;-82
2021/11/23 04:30:26;;;;;;;3.63;2.78;;;10.20;99.90;;;;;;6124715;23;20045;-81
2021/11/23 04:32:52;;;;;;;5.95;3.15;;;10.20;99.90;;;;;;6123916;23;20106;-81
2021/11/23 04:35:18;;;;;;;4.70;2.45;;;10.20;99.90;;;;;;6124240;23;20002;-82
2021/11/23 04:37:45;;;;;;;3.83;2.72;;;10.20;99.90;;;;;;6124348;23;20056;-82
2021/11/23 04:40:13;;;;;;;4.43;2.47;;;10.10;99.90;;;;;;6125929;23;20006;-82
2021/11/23 04:42:39;;;;;;;4.65;2.60;;;10.10;99.90;;;;;;6123848;23;20461;-82
2021/11/23 04:45:07;;;;;;;3.10;2.33;;;10.10;99.90;;;;;;6126059;23;19990;-83
2021/11/23 04:47:34;;;;;;;6.45;3.28;;;10.00;99.90;;;;;;6124966;23;20013;-81
2021/11/23 04:49:59;;;;;;;3.85;2.03;;;10.00;99.90;;;;;;6125903;23;20049;-82
2021/11/23 04:52:25;;;;;;;3.47;2.50;;;10.00;99.90;;;;;;6124028;23;20365;-83
2021/11/23 04:54:51;;;;;;;3.17;2.88;;;9.90;99.90;;;;;;6124635;23;20006;-81
2021/11/23 04:57:17;;;;;;;4.72;2.92;;;10.00;99.90;;;;;;6123988;23;20021;-81
2021/11/23 04:59:43;;;;;;;5.30;3.00;;;9.90;99.90;;;;;;6126084;23;20006;-81
2021/11/23 05:02:09;;;;;;;5.65;3.22;;;9.90;99.90;;;;;;6125095;23;20002;-83
2021/11/23 05:04:35;;;;;;;6.18;3.22;;;9.80;99.90;;;;;;6125727;23;20553;-82
2021/11/23 05:07:01;;;;;;;4.15;2.83;;;9.80;99.90;;;;;;6124924;23;20006;-83
2021/11/23 05:09:27;;;;;;;6.65;2.72;;;9.80;99.90;;;;;;6125846;23;20442;-82
2021/11/23 05:11:53;;;;;;;4.88;3.38;;;9.90;99.90;;;;;;6125177;23;20005;-82
2021/11/23 05:14:19;;;;;;;4.72;2.85;;;9.90;99.90;;;;;;6125903;23;20012;-82
2021/11/23 05:16:45;;;;;;;4.70;3.17;;;9.90;99.90;;;;;;6125263;23;20140;-83
2021/11/23 05:19:11;;;;;;;4.88;3.05;;;9.90;99.90;;;;;;6125624;23;20429;-83
2021/11/23 05:21:36;;;;;;;4.03;2.28;;;9.90;99.90;;;;;;6125218;23;20057;-83
2021/11/23 05:24:02;;;;;;;5.43;2.63;;;9.80;99.90;;;;;;6125036;23;20005;-81
2021/11/23 05:26:28;;;;;;;3.83;2.90;;;9.80;99.90;;;;;;6124943;23;19998;-82
2021/11/23 05:28:55;;;;;;;5.70;2.55;;;9.80;99.90;;;;;;6124824;23;20068;-82
2021/11/23 05:31:21;;;;;;;6.53;3.35;;;9.70;99.90;;;;;;6099086;23;20041;-81
2021/11/23 05:33:46;;;;;;;6.10;3.20;;;9.80;99.90;;;;;;6099359;23;20073;-82
2021/11/23 05:36:12;;;;;;;3.85;3.20;;;9.80;99.90;;;;;;6098949;23;20006;-81
2021/11/23 05:38:39;;;;;;;3.90;2.88;;;9.80;99.90;;;;;;6125336;23;20002;-82
2021/11/23 05:41:05;;;;;;;7.95;3.58;;;9.80;99.90;;;;;;6099047;23;20005;-81
2021/11/23 05:43:32;;;;;;;3.67;2.92;;;9.80;99.90;;;;;;6098957;23;20096;-81
2021/11/23 05:45:58;;;;;;;3.17;2.78;;;9.70;99.90;;;;;;6099057;23;20006;-81
2021/11/23 05:48:23;;;;;;;4.78;3.17;;;9.70;99.90;;;;;;6100247;23;20010;-82
2021/11/23 05:50:49;;;;;;;3.75;3.10;;;9.70;99.90;;;;;;6099488;23;20573;-85
2021/11/23 05:53:15;;;;;;;4.78;2.97;;;9.70;99.90;;;;;;6098588;23;20025;-83
2021/11/23 05:55:41;;;;;;;3.53;3.00;;;9.80;99.90;;;;;;6125136;23;20939;-81
2021/11/23 05:58:08;;;;;;;3.95;3.30;;;9.70;99.90;;;;;;6098510;23;20006;-81
2021/11/23 06:00:34;;;;;;;4.82;3.33;;;9.70;99.90;;;;;;6125104;23;20061;-83
2021/11/23 06:03:00;;;;;;;5.82;3.28;;;9.70;99.90;;;;;;6098983;23;20255;-80
2021/11/23 06:05:26;;;;;;;4.85;2.92;;;9.70;99.90;;;;;;6125278;23;20037;-81
2021/11/23 06:07:52;;;;;;;4.80;2.50;;;9.70;99.90;;;;;;6124458;23;20056;-81
2021/11/23 06:10:18;;;;;;;10.25;3.63;;;9.70;99.90;;;;;;6124782;23;20370;-78
2021/11/23 06:12:44;;;;;;;3.65;2.88;;;9.70;99.90;;;;;;6125321;23;20420;-83
2021/11/23 06:15:11;;;;;;;6.78;3.50;;;9.70;99.90;;;;;;6098530;23;20010;-83
2021/11/23 06:17:38;;;;;;;4.53;3.20;;;9.70;99.90;;;;;;6124156;23;20009;-81
2021/11/23 06:20:05;;;;;;;4.90;3.03;;;9.60;99.90;;;;;;6134941;23;20096;-83
2021/11/23 06:22:35;;;;;;;5.20;3.28;;;9.60;99.90;;;;;;6130194;23;20012;-81
2021/11/23 06:25:01;;;;;;;3.35;2.78;;;9.60;99.90;;;;;;6123366;23;20003;-79
2021/11/23 06:27:27;;;;;;;6.13;2.92;;;9.60;99.90;;;;;;6097056;23;20006;-84
2021/11/23 06:29:53;;;;;;;4.63;2.88;;;9.70;99.90;;;;;;6097723;23;20068;-82
2021/11/23 06:32:19;;;;;;;4.00;2.78;;;9.70;99.90;;;;;;6097281;23;20042;-81
2021/11/23 06:34:46;;;;;;;6.10;3.38;;;9.70;99.90;;;;;;6123627;23;20041;-80
2021/11/23 06:37:12;;;;;;;7.97;3.22;;;9.70;99.90;;;;;;6098651;23;19998;-85
2021/11/23 06:39:37;;;;;;;3.58;3.10;;;9.70;99.90;;;;;;6124498;23;20037;-82
2021/11/23 06:42:03;;;;;;;4.28;2.72;;;9.70;99.90;;;;;;6123463;23;20334;-83
2021/11/23 06:44:29;;;;;;;3.63;2.67;;;9.70;99.90;;;;;;6124028;23;20004;-82
2021/11/23 06:46:54;;;;;;;4.10;3.40;;;9.70;99.90;;;;;;6124293;23;20002;-82
2021/11/23 06:49:20;;;;;;;3.38;2.70;;;9.80;99.90;;;;;;6124594;23;19994;-82
2021/11/23 06:51:46;;;;;;;4.15;2.97;;;9.80;99.90;;;;;;6097623;23;20298;-82
2021/11/23 06:54:11;;;;;;;5.43;3.50;;;9.80;99.50;;;;;;6098646;23;20010;-82
2021/11/23 06:56:38;;;;;;;3.60;2.25;;;9.80;99.30;;;;;;6098064;23;20049;-83
2021/11/23 06:59:04;;;;;;;4.72;2.90;;;9.90;98.90;;;;;;6124451;23;20341;-82
2021/11/23 07:01:30;;;;;;;3.72;2.55;;;10.00;98.60;;;;;;6124205;23;19998;-82
2021/11/23 07:03:57;;;;;;;4.97;2.70;;;10.00;98.60;;;;;;6124691;23;20378;-82
2021/11/23 07:06:23;;;;;;;2.30;2.08;;;10.00;98.30;;;;;;6097841;23;20671;-90
2021/11/23 07:08:49;;;;;;;4.05;2.70;;;10.00;98.10;;;;;;6098804;23;20445;-82
2021/11/23 07:11:15;;;;;;;4.75;2.47;;;10.10;97.90;;;;;;6098912;23;20112;-80
2021/11/23 07:13:42;;;;;;;3.80;2.78;;;10.10;97.60;;;;;;6097741;23;20045;-80
2021/11/23 07:16:09;;;;;;;4.15;2.88;;;10.10;97.70;;;;;;6097814;23;20085;-80
2021/11/23 07:18:34;;;;;;;4.05;3.05;;;10.20;97.30;;;;;;6123872;23;20111;-81
2021/11/23 07:21:00;;;;;;;2.88;2.65;;;10.20;97.30;;;;;;6097218;23;20002;-83
2021/11/23 07:23:26;;;;;;;3.40;2.97;;;10.20;97.20;;;;;;6099469;23;20013;-84
2021/11/23 07:25:52;;;;;;;3.75;3.15;;;10.20;97.60;;;;;;6123227;23;20010;-81
2021/11/23 07:28:18;;;;;;;3.05;2.30;;;10.20;97.00;;;;;;6119840;23;20255;-84
2021/11/23 07:30:45;;;;;;;2.75;2.40;;;10.30;96.60;;;;;;6120636;23;20006;-80
2021/11/23 07:33:10;;;;;;;4.32;2.92;;;10.30;96.80;;;;;;6120275;23;20021;-80
2021/11/23 07:35:36;;;;;;;13.25;2.88;;;10.30;96.80;;;;;;6119733;23;20009;-83
2021/11/23 07:38:02;;;;;;;3.40;2.20;;;10.30;96.90;;;;;;6120100;23;20338;-83
2021/11/23 07:40:28;;;;;;;2.90;2.38;;;10.30;96.80;;;;;;6093775;23;20010;-82
2021/11/23 07:42:54;;;;;;;6.20;2.72;;;10.30;96.80;;;;;;6120267;23;20008;-81
2021/11/23 07:45:21;;;;;;;2.53;2.20;;;10.30;97.10;;;;;;6093954;23;20064;-81
2021/11/23 07:47:47;;;;;;;3.65;2.10;;;10.30;96.70;;;;;;6119427;23;20080;-81
2021/11/23 07:50:13;;;;;;;12.02;2.33;;;10.30;96.50;;;;;;6094428;23;20574;-78
2021/11/23 07:52:38;;;;;;;2.83;2.45;;;10.40;96.50;;;;;;6122405;23;20089;-82
2021/11/23 07:55:05;;;;;;;3.40;2.47;;;10.40;96.60;;;;;;6096467;23;20012;-81
2021/11/23 07:57:33;;;;;;;3.50;2.33;;;10.50;96.30;;;;;;6096782;23;20145;-86
2021/11/23 07:59:59;;;;;;;4.45;2.42;;;10.50;95.50;;;;;;6123758;23;20002;-83
2021/11/23 08:02:24;;;;;;;4.00;2.35;;;10.40;95.90;;;;;;6095655;23;20005;-88
2021/11/23 08:04:50;;;;;;;4.55;2.75;;;10.50;95.80;;;;;;6123363;23;20089;-83
2021/11/23 08:07:16;;;;;;;2.15;1.90;;;10.50;95.90;;;;;;6124699;23;20326;-85
2021/11/23 08:09:43;;;;;;;3.45;2.15;;;10.60;95.40;;;;;;6098580;23;20010;-86
2021/11/23 08:12:09;;;;;;;2.78;1.80;;;10.50;95.80;;;;;;6100979;23;20073;-87
2021/11/23 08:14:35;;;;;;;3.35;2.42;;;10.60;95.40;;;;;;6099940;23;20006;-87
2021/11/23 08:17:01;;;;;;;2.45;1.73;;;10.60;95.60;;;;;;6125552;23;20002;-90
2021/11/23 08:19:26;;;;;;;2.35;1.92;;;10.60;95.30;;;;;;6124284;23;20010;-87
2021/11/23 08:21:52;;;;;;;4.68;2.10;;;10.60;95.70;;;;;;6122900;23;20077;-86
2021/11/23 08:24:18;;;;;;;4.20;2.08;;;10.60;95.40;;;;;;6124132;23;20053;-85
2021/11/23 08:26:44;;;;;;;2.78;1.98;;;10.60;95.30;;;;;;6123577;23;20330;-85
2021/11/23 08:29:10;;;;;;;4.82;2.55;;;10.70;95.10;;;;;;6112156;23;20018;-86
2021/11/23 08:31:36;;;;;;;2.00;1.70;;;10.70;95.10;;;;;;6123625;23;19998;-92
2021/11/23 08:34:04;;;;;;;3.70;2.50;;;10.70;94.70;;;;;;6123909;23;20029;-89
2021/11/23 08:36:33;;;;;;;3.67;2.50;;;10.70;95.30;;;;;;6123077;23;20009;-84
2021/11/23 08:39:03;;;;;;;5.63;2.45;;;10.70;95.10;;;;;;6121405;23;20501;-83
2021/11/23 08:41:29;;;;;;;3.70;2.55;;;10.70;94.60;;;;;;6122818;23;20002;-84
2021/11/23 08:43:55;;;;;;;3.50;2.05;;;10.70;95.10;;;;;;6122006;23;20006;-88
2021/11/23 08:46:20;;;;;;;3.17;2.17;;;10.70;95.40;;;;;;6123145;23;20006;-86
2021/11/23 08:48:46;;;;;;;2.10;1.90;;;10.70;95.70;;;;;;6121524;23;20125;-86
2021/11/23 08:51:17;;;;;;;3.35;2.00;;;10.80;94.80;;;;;;6122277;23;20006;-85
2021/11/23 08:53:43;;;;;;;3.10;2.40;;;10.90;94.50;;;;;;6121590;23;20024;-81
2021/11/23 08:56:08;;;;;;;2.40;2.17;;;10.90;94.30;;;;;;6121385;23;20026;-84
2021/11/23 08:58:35;;;;;;;4.65;2.20;;;11.00;94.10;;;;;;6119716;23;20141;-83
2021/11/23 09:01:01;;;;;;;4.15;2.90;;;11.00;94.10;;;;;;6120242;23;20009;-84
2021/11/23 09:03:27;;;;;;;2.47;2.03;;;11.00;94.00;;;;;;6122631;23;20496;-84
2021/11/23 09:05:53;;;;;;;2.63;2.17;;;11.00;94.40;;;;;;6120935;23;20021;-84
2021/11/23 09:08:19;;;;;;;3.03;2.30;;;11.10;94.00;;;;;;6123290;23;20006;-85
2021/11/23 09:10:46;;;;;;;5.15;2.20;;;11.10;94.30;;;;;;6123166;23;20044;-84
2021/11/23 09:13:12;;;;;;;3.60;2.20;;;11.20;93.70;;;;;;6123997;23;20433;-83
2021/11/23 09:15:38;;;;;;;2.72;2.15;;;11.20;93.90;;;;;;6124463;23;19994;-83
2021/11/23 09:18:06;;;;;;;3.38;2.65;;;11.20;93.90;;;;;;6122396;23;20017;-85
2021/11/23 09:20:36;;;;;;;9.60;2.53;;;11.20;93.60;;;;;;6120836;23;20454;-83
2021/11/23 09:23:13;;;;;;;3.95;2.10;;;11.30;93.20;;;;;;6122735;23;20101;-84
2021/11/23 09:25:39;;;;;;;2.75;2.00;;;11.30;92.50;;;;;;6121325;23;20002;-83
2021/11/23 09:28:06;;;;;;;2.67;1.90;;;11.30;92.10;;;;;;6119839;23;20085;-86
2021/11/23 09:30:33;;;;;;;3.30;2.15;;;11.30;91.70;;;;;;6122587;23;20006;-84
2021/11/23 09:33:00;;;;;;;2.90;2.30;;;11.40;91.90;;;;;;6122279;23;20009;-83
2021/11/23 09:35:27;;;;;;;2.15;1.90;;;11.50;92.00;;;;;;6120873;23;20032;-84
2021/11/23 09:37:55;;;;;;;3.33;2.10;;;11.70;91.30;;;;;;6122594;23;20001;-83
2021/11/23 09:40:21;;;;;;;1.95;1.73;;;11.80;90.90;;;;;;6121337;23;20006;-84
2021/11/23 09:42:48;;;;;;;3.67;2.10;;;11.80;90.60;;;;;;6121262;23;20010;-81
2021/11/23 09:45:14;;;;;;;2.25;1.80;;;11.90;90.20;;;;;;6122696;23;20088;-82
2021/11/23 09:47:40;;;;;;;2.75;1.80;;;11.90;90.20;;;;;;6122439;23;20096;-83
2021/11/23 09:50:06;;;;;;;2.60;2.08;;;11.90;89.90;;;;;;6124245;23;20347;-83
2021/11/23 09:52:33;;;;;;;4.40;2.00;;;11.80;90.00;;;;;;6124008;23;20013;-85
2021/11/23 09:54:59;;;;;;;2.85;2.00;;;11.80;89.10;;;;;;6126426;23;20077;-91
2021/11/23 09:57:24;;;;;;;4.00;2.40;;;11.80;90.20;;;;;;6129669;23;20421;-90
2021/11/23 09:59:50;;;;;;;2.40;2.20;;;11.80;89.70;;;;;;6129198;23;20009;-88
2021/11/23 10:02:30;;;;;;;4.05;2.17;;;11.80;90.00;;;;;;6132539;23;19998;-89
2021/11/23 10:05:14;;;;;;;1.50;1.40;;;11.90;89.80;;;;;;6128331;23;20361;-90
2021/11/23 10:07:43;;;;;;;4.68;2.08;;;11.80;89.50;;;;;;6126370;23;20025;-91
2021/11/23 10:10:16;;;;;;;5.55;2.03;;;11.70;90.10;;;;;;6126095;23;20005;-91
2021/11/23 10:12:59;;;;;;;1.80;1.70;;;11.80;90.10;;;;;;6124745;23;20017;-91
2021/11/23 10:15:29;;;;;;;4.93;2.33;;;11.70;90.40;;;;;;6126909;23;20009;-89
2021/11/23 10:18:19;;;;;;;2.92;2.05;;;11.80;90.60;;;;;;6125093;23;20434;-90
2021/11/23 10:20:56;;;;;;;5.22;2.25;;;11.80;90.80;;;;;;6127742;23;20434;-91
2021/11/23 10:23:25;;;;;;;2.78;2.33;;;11.80;90.50;;;;;;6128923;23;20005;-90
2021/11/23 10:26:00;;;;;;;3.28;2.08;;;11.80;90.80;;;;;;6129922;23;20091;-90
2021/11/23 10:28:28;;;;;;;5.53;2.20;;;11.90;90.60;;;;;;6124740;23;20009;-86
2021/11/23 10:30:55;;;;;;;2.90;1.95;;;12.00;90.60;;;;;;6125960;23;20001;-88
2021/11/23 10:33:21;;;;;;;2.33;2.13;;;11.80;90.30;;;;;;6126415;23;20020;-85
2021/11/23 10:35:51;;;;;;;2.25;2.05;;;11.80;90.10;;;;;;6126261;23;20009;-88
2021/11/23 10:38:17;;;;;;;4.95;2.75;;;11.70;90.40;;;;;;6123104;23;20006;-87
2021/11/23 10:40:45;;;;;;;4.35;2.03;;;11.70;90.70;;;;;;6122973;23;20056;-85
2021/11/23 10:43:14;;;;;;;2.60;1.88;;;11.80;90.20;;;;;;6122363;23;20065;-87
2021/11/23 10:45:48;;;;;;;7.40;2.17;;;11.70;90.00;;;;;;6123185;23;20089;-86
2021/11/23 10:48:16;;;;;;;2.75;2.28;;;11.80;89.20;;;;;;6095506;23;20686;-86
2021/11/23 10:50:54;;;;;;;5.72;2.53;;;11.90;89.10;;;;;;6097972;23;20122;-87
2021/11/23 10:53:23;;;;;;;3.03;1.92;;;11.90;89.60;;;;;;6123488;23;20017;-85
2021/11/23 10:55:49;;;;;;;4.80;2.47;;;12.00;89.20;;;;;;6122277;23;20013;-87
2021/11/23 10:58:16;;;;;;;2.10;1.88;;;12.00;89.20;;;;;;6122394;23;20076;-86
2021/11/23 11:00:47;;;;;;;5.00;2.20;;;12.00;89.00;;;;;;6123817;23;20103;-89
2021/11/23 11:03:15;;;;;;;3.28;2.63;;;12.00;89.50;;;;;;6097584;23;20013;-87
2021/11/23 11:05:42;;;;;;;3.97;2.78;;;12.00;88.90;;;;;;6123016;23;20002;-88
2021/11/23 11:08:09;;;;;;;2.58;1.92;;;12.00;89.70;;;;;;6095649;23;20021;-88
2021/11/23 11:10:38;;;;;;;3.72;2.78;;;12.00;90.00;;;;;;6123442;23;20040;-88
2021/11/23 11:13:10;;;;;;;2.83;2.33;;;12.00;90.00;;;;;;6100519;23;20082;-84
2021/11/23 11:15:39;;;;;;;2.42;1.90;;;12.10;89.80;;;;;;6125371;23;20029;-88
2021/11/23 11:18:13;;;;;;;4.60;2.38;;;12.20;89.20;;;;;;6124359;23;20013;-87
2021/11/23 11:20:58;;;;;;;2.40;2.20;;;12.10;89.50;;;;;;6098805;23;20441;-87
2021/11/23 11:23:30;;;;;;;3.08;2.15;;;12.10;88.30;;;;;;6125498;23;20002;-87
2021/11/23 11:28:48;;;;;;;3.10;2.30;;;12.10;88.20;;;;;;6126904;23;20013;-87
2021/11/23 11:31:29;;;;;;;3.05;2.63;;;12.20;88.50;;;;;;6101434;23;20013;-84
2021/11/23 11:34:36;;;;;;;3.03;2.03;;;12.20;87.70;;;;;;6126395;23;20013;-86
2021/11/23 11:37:10;;;;;;;4.28;2.30;;;12.20;86.40;;;;;;6114823;23;20002;-86
2021/11/23 11:39:38;;;;;;;4.20;2.67;;;12.20;86.30;;;;;;6126401;23;20002;-86
2021/11/23 11:42:32;;;;;;;4.78;2.40;;;12.40;85.90;;;;;;6126317;23;20006;-87
2021/11/23 11:45:07;;;;;;;3.33;2.28;;;12.50;85.30;;;;;;6128804;23;20002;-87
2021/11/23 11:47:35;;;;;;;2.15;1.90;;;12.60;85.10;;;;;;6126736;23;20057;-85
2021/11/23 11:50:09;;;;;;;2.63;2.20;;;12.60;84.50;;;;;;6129757;23;20008;-88
2021/11/23 11:53:00;;;;;;;4.63;2.83;;;12.60;84.60;;;;;;6132914;23;20076;-85
2021/11/23 11:55:28;;;;;;;3.42;2.40;;;12.70;84.00;;;;;;6100556;23;19998;-85
2021/11/23 11:57:56;;;;;;;2.85;2.40;;;12.70;84.00;;;;;;6103811;23;20006;-83
2021/11/23 12:00:27;;;;;;;4.97;2.38;;;12.80;83.80;;;;;;6105009;23;20010;-85
2021/11/23 12:03:00;;;;;;;2.92;1.88;;;12.90;84.00;;;;;;6102478;23;20009;-90
2021/11/23 12:05:46;;;;;;;2.85;2.55;;;12.80;82.50;;;;;;6105536;23;20403;-89
2021/11/23 12:08:38;;;;;;;3.90;2.42;;;12.90;82.40;;;;;;6128269;23;20009;-88
2021/11/23 12:11:12;;;;;;;4.18;2.45;;;13.40;81.40;;;;;;6106880;23;20085;-91
2021/11/23 12:14:01;;;;;;;3.15;2.30;;;14.10;78.90;;;;;;6130418;23;20045;-87
2021/11/23 12:16:49;;;;;;;3.17;2.58;;;15.10;74.90;;;;;;6133273;23;19995;-86
2021/11/23 12:19:25;;;;;;;2.83;2.08;;;16.40;71.60;;;;;;6130796;23;20073;-85
2021/11/23 12:21:54;;;;;;;2.95;1.85;;;17.60;68.60;;;;;;6100258;23;20002;-84
2021/11/23 12:24:28;;;;;;;1.98;1.60;;;18.20;65.70;;;;;;6126938;23;20081;-86
2021/11/23 12:26:55;;;;;;;4.40;2.40;;;18.20;64.00;;;;;;6102037;23;20002;-84
2021/11/23 12:29:29;;;;;;;2.25;2.05;;;17.40;64.10;;;;;;6128409;23;20573;-86
2021/11/23 12:31:56;;;;;;;2.20;2.00;;;17.20;65.00;;;;;;6101887;23;20013;-85
2021/11/23 12:34:22;;;;;;;2.40;1.90;;;17.30;64.60;;;;;;6102212;23;20006;-83
2021/11/23 12:36:54;;;;;;;5.03;1.92;;;17.60;63.50;;;;;;6127949;23;20013;-84
2021/11/23 12:39:37;;;;;;;3.65;2.22;;;18.20;62.20;;;;;;6126029;23;20013;-86
2021/11/23 12:42:09;;;;;;;5.05;2.05;;;17.60;63.10;;;;;;6133909;23;20460;-82
2021/11/23 12:44:37;;;;;;;3.67;1.90;;;18.30;61.40;;;;;;6102709;23;20002;-83
2021/11/23 12:47:08;;;;;;;3.30;2.33;;;19.50;59.10;;;;;;6127954;23;20008;-85
2021/11/23 12:49:35;;;;;;;2.15;1.63;;;20.30;56.80;;;;;;6101906;23;20042;-83
2021/11/23 12:52:12;;;;;;;2.70;2.08;;;20.10;56.30;;;;;;6125747;23;20010;-82
2021/11/23 12:54:41;;;;;;;3.25;2.20;;;19.30;57.40;;;;;;6127404;23;20006;-84